KBFD/BFD METAR and TAF weather

Enter ICAO airport designator
Station Type Date Time Source
KBFD METAR 2022/06/28 08:53 UTC NOAA

KBFD 280853Z AUTO 00000KT 10SM CLR 10/07 A3019 RMK AO2 SLP216 T01000067 51003


Station Type Date Time Source
KBFD Decoded METAR 2022/06/28 08:53 UTC NOAA

BRADFORD REGIONAL AIRPORT, PA, United States (KBFD) 41-48N 078-38W 647M
Jun 28, 2022 - 04:53 AM EDT / 2022.06.28 0853 UTC
Wind: Calm:0
Visibility: 10 mile(s):0
Sky conditions: clear
Temperature: 50.0 F (10.0 C)
Dew Point: 44.1 F (6.7 C)
Relative Humidity: 79%
Pressure (altimeter): 30.19 in. Hg (1022 hPa)
Pressure tendency: 0.01 inches (0.3 hPa) higher than three hours ago
ob: KBFD 280853Z AUTO 00000KT 10SM CLR 10/07 A3019 RMK AO2 SLP216 T01000067 51003
cycle: 9

Station Type Date Time Source
KBFD TAF 2022/06/28 08:24 UTC NOAA

TAF
AMD KBFD 280821Z 2808/2906 30006KT P6SM OVC060
FM281300 31008KT P6SM SCT035
FM282200 29005KT P6SM SKC

Example: see airport list